createdAt,value
2018-12-20T00:00:04.766Z,2.69
2018-12-20T00:01:12.873Z,2.69
2018-12-20T00:02:20.896Z,2.72
2018-12-20T00:03:28.967Z,2.67
2018-12-20T00:04:36.978Z,2.67
2018-12-20T00:05:44.995Z,2.71
2018-12-20T00:06:53.109Z,2.67
2018-12-20T00:08:01.159Z,2.64
2018-12-20T00:09:09.340Z,2.54
2018-12-20T00:10:17.307Z,2.59
2018-12-20T00:11:25.386Z,2.59
2018-12-20T00:12:33.423Z,2.67
2018-12-20T00:13:41.410Z,2.61
2018-12-20T00:14:49.461Z,2.59
2018-12-20T00:15:57.491Z,2.66
2018-12-20T00:17:05.558Z,2.56
2018-12-20T00:18:13.575Z,2.74
2018-12-20T00:19:21.780Z,2.57
2018-12-20T00:20:29.811Z,2.66
2018-12-20T00:21:37.894Z,2.59
2018-12-20T00:22:45.827Z,2.64
2018-12-20T00:23:54.060Z,2.66
2018-12-20T00:25:01.974Z,2.61
2018-12-20T00:26:10.035Z,2.46
2018-12-20T00:27:18.041Z,2.61
2018-12-20T00:28:26.110Z,2.57
2018-12-20T00:29:34.126Z,2.59
2018-12-20T00:30:42.202Z,2.57
2018-12-20T00:31:50.248Z,2.63
2018-12-20T00:32:58.403Z,2.61
2018-12-20T00:34:06.371Z,2.54
2018-12-20T00:35:14.427Z,2.64
2018-12-20T00:36:22.479Z,2.60
2018-12-20T00:37:30.584Z,2.63
2018-12-20T00:38:38.590Z,2.66
2018-12-20T00:39:46.655Z,2.74
2018-12-20T00:40:54.844Z,2.66
2018-12-20T00:42:02.771Z,2.74
2018-12-20T00:43:10.924Z,2.72
2018-12-20T00:44:18.868Z,2.66
2018-12-20T00:45:26.921Z,2.69
2018-12-20T00:46:34.963Z,2.72
2018-12-20T00:47:43.022Z,2.64
2018-12-20T00:48:51.108Z,2.69
2018-12-20T00:49:59.113Z,2.74
2018-12-20T00:51:07.179Z,2.74
2018-12-20T00:52:15.254Z,2.75
2018-12-20T00:53:23.407Z,2.74
2018-12-20T00:54:31.365Z,2.72
2018-12-20T00:55:39.432Z,2.67
2018-12-20T00:56:47.523Z,2.74
2018-12-20T00:57:55.611Z,2.69
2018-12-20T00:59:03.619Z,2.74
2018-12-20T01:00:11.868Z,2.82
2018-12-20T01:01:19.680Z,2.79
2018-12-20T01:02:27.734Z,2.72
2018-12-20T01:03:35.915Z,2.67
2018-12-20T01:04:43.850Z,2.77
2018-12-20T01:05:51.997Z,2.67
2018-12-20T01:06:59.965Z,2.84
2018-12-20T01:08:08.004Z,2.82
2018-12-20T01:09:16.287Z,2.78
2018-12-20T01:10:24.118Z,2.71
2018-12-20T01:11:32.236Z,2.79
2018-12-20T01:12:40.302Z,2.78
2018-12-20T01:13:48.279Z,2.72
2018-12-20T01:14:56.353Z,2.71
2018-12-20T01:16:04.399Z,2.75
2018-12-20T01:17:12.442Z,2.74
2018-12-20T01:18:20.563Z,2.78
2018-12-20T01:19:28.568Z,2.82
2018-12-20T01:20:36.609Z,2.81
2018-12-20T01:21:44.672Z,2.74
2018-12-20T01:22:52.823Z,2.82
2018-12-20T01:24:00.923Z,2.67
2018-12-20T01:25:08.841Z,2.78
2018-12-20T01:26:16.880Z,2.82
2018-12-20T01:27:25.022Z,2.77
2018-12-20T01:28:32.973Z,2.89
2018-12-20T01:29:41.083Z,2.81
2018-12-20T01:30:49.197Z,2.77
2018-12-20T01:31:57.165Z,2.79
2018-12-20T01:33:05.238Z,2.78
2018-12-20T01:34:13.255Z,2.85
2018-12-20T01:35:21.544Z,2.84
2018-12-20T01:36:29.438Z,2.84
2018-12-20T01:37:37.426Z,2.85
2018-12-20T01:38:45.625Z,2.85
2018-12-20T01:39:53.624Z,2.84
2018-12-20T01:41:01.759Z,2.77
2018-12-20T01:42:09.649Z,2.89
2018-12-20T01:43:17.705Z,2.81
2018-12-20T01:44:25.801Z,2.93
2018-12-20T01:45:33.805Z,2.93
2018-12-20T01:46:41.879Z,2.85
2018-12-20T01:47:49.923Z,2.90
2018-12-20T01:48:57.981Z,2.90
2018-12-20T01:50:06.031Z,2.84
2018-12-20T01:51:14.229Z,2.87
2018-12-20T01:52:22.188Z,2.82
2018-12-20T01:53:30.186Z,2.87
2018-12-20T01:54:38.292Z,2.89
2018-12-20T01:55:46.522Z,2.84
2018-12-20T01:56:54.357Z,2.78
2018-12-20T01:58:02.611Z,2.85
2018-12-20T01:59:10.571Z,2.78
2018-12-20T02:00:18.640Z,2.81
2018-12-20T02:01:26.584Z,2.79
2018-12-20T02:02:34.657Z,2.89
2018-12-20T02:03:42.872Z,2.84
2018-12-20T02:04:50.776Z,2.84
2018-12-20T02:05:58.798Z,2.90
2018-12-20T02:07:06.827Z,2.87
2018-12-20T02:08:15.057Z,2.90
2018-12-20T02:09:23.023Z,2.90
2018-12-20T02:10:31.159Z,2.81
2018-12-20T02:11:39.077Z,2.92
2018-12-20T02:12:47.142Z,2.85
2018-12-20T02:13:55.190Z,2.82
2018-12-20T02:15:03.258Z,2.93
2018-12-20T02:16:11.383Z,2.92
2018-12-20T02:17:19.336Z,2.95
2018-12-20T02:18:27.469Z,2.87
2018-12-20T02:19:35.439Z,2.87
2018-12-20T02:20:43.525Z,2.82
2018-12-20T02:21:51.583Z,2.93
2018-12-20T02:22:59.834Z,2.95
2018-12-20T02:24:07.840Z,2.93
2018-12-20T02:25:15.718Z,2.89
2018-12-20T02:26:24.029Z,2.93
2018-12-20T02:27:31.823Z,2.90
2018-12-20T02:28:39.916Z,2.92
2018-12-20T02:29:47.955Z,2.93
2018-12-20T02:30:56.026Z,2.93
2018-12-20T02:32:04.240Z,2.95
2018-12-20T02:33:12.119Z,2.96
2018-12-20T02:34:20.478Z,2.89
2018-12-20T02:35:28.435Z,2.96
2018-12-20T02:36:36.276Z,2.92
2018-12-20T02:37:44.528Z,2.90
2018-12-20T02:38:52.409Z,2.93
2018-12-20T02:40:00.545Z,2.96
2018-12-20T02:41:08.519Z,2.97
2018-12-20T02:42:16.547Z,2.95
2018-12-20T02:43:24.610Z,2.97
2018-12-20T02:44:32.882Z,3.00
2018-12-20T02:45:40.867Z,2.92
2018-12-20T02:46:48.775Z,2.95
2018-12-20T02:47:56.854Z,2.93
2018-12-20T02:49:04.884Z,2.95
2018-12-20T02:50:12.919Z,3.00
2018-12-20T02:51:20.995Z,2.89
2018-12-20T02:52:29.188Z,2.97
2018-12-20T02:53:37.369Z,2.99
2018-12-20T02:54:45.254Z,2.99
2018-12-20T02:55:53.281Z,2.99
2018-12-20T02:57:01.424Z,3.05
2018-12-20T02:58:09.321Z,2.96
2018-12-20T02:59:17.399Z,3.03
2018-12-20T03:00:25.431Z,3.03
2018-12-20T03:01:33.507Z,2.95
2018-12-20T03:02:41.572Z,3.06
2018-12-20T03:03:49.594Z,3.03
2018-12-20T03:04:57.769Z,2.96
2018-12-20T03:06:05.763Z,3.05
2018-12-20T03:07:13.752Z,2.99
2018-12-20T03:08:21.812Z,3.02
2018-12-20T03:09:29.855Z,2.99
2018-12-20T03:10:37.935Z,3.02
2018-12-20T03:11:46.171Z,3.00
2018-12-20T03:12:54.041Z,3.03
2018-12-20T03:14:02.101Z,3.03
2018-12-20T03:15:10.307Z,2.99
2018-12-20T03:16:18.356Z,3.05
2018-12-20T03:17:26.259Z,3.06
2018-12-20T03:18:34.315Z,3.11
2018-12-20T03:19:42.572Z,3.06
2018-12-20T03:20:50.798Z,3.15
2018-12-20T03:21:58.485Z,3.02
2018-12-20T03:23:06.527Z,3.03
2018-12-20T03:24:14.783Z,3.02
2018-12-20T03:25:22.643Z,3.05
2018-12-20T03:26:30.689Z,3.10
2018-12-20T03:27:38.735Z,2.99
2018-12-20T03:28:46.832Z,2.97
2018-12-20T03:29:54.937Z,3.03
2018-12-20T03:31:03.255Z,2.99
2018-12-20T03:32:11.153Z,2.92
2018-12-20T03:33:19.028Z,2.99
2018-12-20T03:34:27.421Z,3.03
2018-12-20T03:35:35.112Z,2.97
2018-12-20T03:36:43.345Z,3.03
2018-12-20T03:37:51.282Z,2.95
2018-12-20T03:38:59.315Z,3.02
2018-12-20T03:40:07.541Z,3.06
2018-12-20T03:41:15.592Z,3.15
2018-12-20T03:42:23.476Z,3.10
2018-12-20T03:43:31.838Z,3.06
2018-12-20T03:44:39.594Z,3.15
2018-12-20T03:45:47.683Z,2.97
2018-12-20T03:46:55.668Z,3.08
2018-12-20T03:48:03.778Z,3.03
2018-12-20T03:49:11.840Z,3.14
2018-12-20T03:50:19.861Z,3.11
2018-12-20T03:51:27.937Z,3.13
2018-12-20T03:52:36.004Z,3.08
2018-12-20T03:53:44.056Z,3.15
2018-12-20T03:54:52.070Z,3.08
2018-12-20T03:56:00.387Z,3.10
2018-12-20T03:57:08.330Z,3.08
2018-12-20T03:58:16.248Z,3.06
2018-12-20T03:59:24.284Z,3.06
2018-12-20T04:00:32.429Z,3.10
2018-12-20T04:01:40.428Z,3.14
2018-12-20T04:02:48.652Z,3.10
2018-12-20T04:03:56.585Z,3.15
2018-12-20T04:05:04.708Z,3.14
2018-12-20T04:06:12.821Z,3.08
2018-12-20T04:07:20.782Z,3.11
2018-12-20T04:08:28.805Z,3.14
2018-12-20T04:09:36.851Z,3.15
2018-12-20T04:10:44.863Z,3.18
2018-12-20T04:11:52.905Z,3.14
2018-12-20T04:13:00.966Z,3.17
2018-12-20T04:14:09.010Z,3.15
2018-12-20T04:15:17.135Z,3.10
2018-12-20T04:16:25.176Z,3.15
2018-12-20T04:17:33.181Z,3.17
2018-12-20T04:18:41.221Z,3.21
2018-12-20T04:19:49.250Z,3.28
2018-12-20T04:20:57.355Z,3.28
2018-12-20T04:22:05.401Z,3.28
2018-12-20T04:23:13.438Z,3.24
2018-12-20T04:24:21.685Z,3.28
2018-12-20T04:25:29.847Z,3.29
2018-12-20T04:26:37.656Z,3.32
2018-12-20T04:27:45.977Z,3.28
2018-12-20T04:28:53.737Z,3.24
2018-12-20T04:30:01.768Z,3.32
2018-12-20T04:31:09.847Z,3.24
2018-12-20T04:32:17.896Z,3.29
2018-12-20T04:33:26.163Z,3.28
2018-12-20T04:34:34.172Z,3.24
2018-12-20T04:35:42.048Z,3.24
2018-12-20T04:36:50.129Z,3.28
2018-12-20T04:37:58.169Z,3.24
2018-12-20T04:39:06.208Z,3.29
2018-12-20T04:40:14.262Z,3.32
2018-12-20T04:41:22.575Z,3.29
2018-12-20T04:42:30.431Z,3.31
2018-12-20T04:43:38.457Z,3.31
2018-12-20T04:44:46.549Z,3.31
2018-12-20T04:45:54.547Z,3.35
2018-12-20T04:47:02.721Z,3.24
2018-12-20T04:48:10.667Z,3.35
2018-12-20T04:49:18.833Z,3.28
2018-12-20T04:50:26.844Z,3.28
2018-12-20T04:51:34.852Z,3.28
2018-12-20T04:52:42.869Z,3.32
2018-12-20T04:53:51.040Z,3.24
2018-12-20T04:54:59.291Z,3.28
2018-12-20T04:56:07.034Z,3.32
2018-12-20T04:57:15.086Z,3.24
2018-12-20T04:58:23.168Z,3.29
2018-12-20T04:59:31.503Z,3.28
2018-12-20T05:00:40.690Z,3.26
2018-12-20T05:01:47.409Z,3.24
2018-12-20T05:02:55.408Z,3.24
2018-12-20T05:04:03.495Z,3.26
2018-12-20T05:05:11.545Z,3.28
2018-12-20T05:06:19.537Z,3.29
2018-12-20T05:07:27.898Z,3.32
2018-12-20T05:08:35.927Z,3.23
2018-12-20T05:09:43.686Z,3.24
2018-12-20T05:10:51.972Z,3.28
2018-12-20T05:11:59.972Z,3.31
2018-12-20T05:13:07.920Z,3.26
2018-12-20T05:14:16.131Z,3.32
2018-12-20T05:15:24.151Z,3.36
2018-12-20T05:16:32.217Z,3.35
2018-12-20T05:17:40.270Z,3.35
2018-12-20T05:18:48.346Z,3.33
2018-12-20T05:19:56.211Z,3.29
2018-12-20T05:21:04.276Z,3.31
2018-12-20T05:22:12.349Z,3.39
2018-12-20T05:23:20.378Z,3.35
2018-12-20T05:24:28.560Z,3.39
2018-12-20T05:25:36.482Z,3.36
2018-12-20T05:26:44.602Z,3.36
2018-12-20T05:27:52.894Z,3.40
2018-12-20T05:29:00.783Z,3.36
2018-12-20T05:30:08.733Z,3.39
2018-12-20T05:31:16.732Z,3.35
2018-12-20T05:32:24.992Z,3.43
2018-12-20T05:33:32.932Z,3.39
2018-12-20T05:34:40.911Z,3.42
2018-12-20T05:35:49.096Z,3.47
2018-12-20T05:36:57.027Z,3.32
2018-12-20T05:38:05.095Z,3.33
2018-12-20T05:39:13.144Z,3.36
2018-12-20T05:40:21.465Z,3.35
2018-12-20T05:41:29.453Z,3.35
2018-12-20T05:42:37.519Z,3.39
2018-12-20T05:43:45.428Z,3.33
2018-12-20T05:44:53.703Z,3.35
2018-12-20T05:46:04.546Z,3.33
2018-12-20T05:47:09.512Z,3.35
2018-12-20T05:48:17.719Z,3.35
2018-12-20T05:49:25.766Z,3.39
2018-12-20T05:50:33.695Z,3.35
2018-12-20T05:51:41.897Z,3.33
2018-12-20T05:52:49.798Z,3.28
2018-12-20T05:53:57.968Z,3.35
2018-12-20T05:55:06.076Z,3.28
2018-12-20T05:56:15.292Z,3.32
2018-12-20T05:57:22.002Z,3.28
2018-12-20T05:58:30.072Z,3.35
2018-12-20T05:59:38.186Z,3.32
2018-12-20T06:00:46.224Z,3.29
2018-12-20T06:01:54.717Z,3.35
2018-12-20T06:03:02.519Z,3.32
2018-12-20T06:04:11.540Z,3.33
2018-12-20T06:05:18.428Z,3.31
2018-12-20T06:06:26.541Z,3.39
2018-12-20T06:07:34.613Z,3.36
2018-12-20T06:08:42.570Z,3.33
2018-12-20T06:09:54.156Z,3.33
2018-12-20T06:11:01.999Z,3.39
2018-12-20T06:12:06.869Z,3.33
2018-12-20T06:13:15.090Z,3.35
2018-12-20T06:14:23.304Z,3.35
2018-12-20T06:15:30.905Z,3.33
2018-12-20T06:16:38.951Z,3.35
2018-12-20T06:17:47.047Z,3.42
2018-12-20T06:18:55.056Z,3.35
2018-12-20T06:20:03.233Z,3.35
2018-12-20T06:21:11.223Z,3.28
2018-12-20T06:22:19.241Z,3.35
2018-12-20T06:23:27.306Z,3.35
2018-12-20T06:24:35.318Z,3.35
2018-12-20T06:25:43.413Z,3.32
2018-12-20T06:26:51.480Z,3.29
2018-12-20T06:27:59.505Z,3.35
2018-12-20T06:29:07.618Z,3.33
2018-12-20T06:30:15.643Z,3.35
2018-12-20T06:31:23.664Z,3.33
2018-12-20T06:32:31.737Z,3.35
2018-12-20T06:33:39.777Z,3.39
2018-12-20T06:34:47.838Z,3.39
2018-12-20T06:35:55.921Z,3.35
2018-12-20T06:37:03.941Z,3.45
2018-12-20T06:38:12.018Z,3.45
2018-12-20T06:39:20.070Z,3.33
2018-12-20T06:40:28.110Z,3.42
2018-12-20T06:41:36.154Z,3.33
2018-12-20T06:42:44.216Z,3.39
2018-12-20T06:43:52.282Z,3.39
2018-12-20T06:45:00.379Z,3.36
2018-12-20T06:46:08.375Z,3.33
2018-12-20T06:47:16.439Z,3.36
2018-12-20T06:48:24.488Z,3.36
2018-12-20T06:49:32.538Z,3.40
2018-12-20T06:50:40.627Z,3.47
2018-12-20T06:51:48.662Z,3.40
2018-12-20T06:52:56.711Z,3.36
2018-12-20T06:54:04.756Z,3.42
2018-12-20T06:55:12.818Z,3.33
2018-12-20T06:56:20.894Z,3.40
2018-12-20T06:57:29.571Z,3.40
2018-12-20T06:58:36.985Z,3.36
2018-12-20T06:59:45.028Z,3.33
2018-12-20T07:00:53.161Z,3.48
2018-12-20T07:02:01.161Z,3.42
2018-12-20T07:03:09.211Z,3.36
2018-12-20T07:04:17.269Z,3.33
2018-12-20T07:05:25.340Z,3.43
2018-12-20T07:06:33.369Z,3.48
2018-12-20T07:07:41.427Z,3.42
2018-12-20T07:08:49.490Z,3.35
2018-12-20T07:09:57.543Z,3.39
2018-12-20T07:11:05.595Z,3.36
2018-12-20T07:12:13.652Z,3.42
2018-12-20T07:13:21.699Z,3.39
2018-12-20T07:14:29.764Z,3.39
2018-12-20T07:15:37.814Z,3.36
2018-12-20T07:16:45.880Z,3.42
2018-12-20T07:17:53.923Z,3.36
2018-12-20T07:19:01.967Z,3.40
2018-12-20T07:20:10.059Z,3.42
2018-12-20T07:21:18.107Z,3.35
2018-12-20T07:22:26.150Z,3.33
2018-12-20T07:23:34.198Z,3.39
2018-12-20T07:24:42.271Z,3.35
2018-12-20T07:25:50.366Z,3.36
2018-12-20T07:26:58.378Z,3.35
2018-12-20T07:28:06.433Z,3.39
2018-12-20T07:29:14.465Z,3.35
2018-12-20T07:30:22.522Z,3.33
2018-12-20T07:31:30.596Z,3.48
2018-12-20T07:32:38.640Z,3.35
2018-12-20T07:33:46.698Z,3.43
2018-12-20T07:34:54.745Z,3.50
2018-12-20T07:36:02.814Z,3.40
2018-12-20T07:37:10.864Z,3.39
2018-12-20T07:38:18.911Z,3.42
2018-12-20T07:39:26.980Z,3.36
2018-12-20T07:40:35.054Z,3.51
2018-12-20T07:41:43.101Z,3.57
2018-12-20T07:42:51.117Z,3.52
2018-12-20T07:43:59.193Z,3.48
2018-12-20T07:45:07.259Z,3.48
2018-12-20T07:46:16.445Z,3.58
2018-12-20T07:47:23.355Z,3.60
2018-12-20T07:48:32.167Z,3.60
2018-12-20T07:49:39.462Z,3.57
2018-12-20T07:50:47.540Z,3.60
2018-12-20T07:51:55.589Z,3.54
2018-12-20T07:53:03.633Z,3.60
2018-12-20T07:54:11.708Z,3.62
2018-12-20T07:55:19.751Z,3.60
2018-12-20T07:56:27.803Z,3.50
2018-12-20T07:57:35.864Z,3.62
2018-12-20T07:58:43.904Z,3.52
2018-12-20T07:59:51.967Z,3.69
2018-12-20T08:01:00.028Z,3.58
2018-12-20T08:02:08.060Z,3.57
2018-12-20T08:03:16.139Z,3.62
2018-12-20T08:04:24.187Z,3.69
2018-12-20T08:05:32.254Z,3.78
2018-12-20T08:06:40.296Z,3.70
2018-12-20T08:07:48.367Z,3.76
2018-12-20T08:08:56.415Z,3.78
2018-12-20T08:10:04.463Z,3.76
2018-12-20T08:11:12.520Z,3.84
2018-12-20T08:12:20.604Z,3.86
2018-12-20T08:13:28.637Z,3.83
2018-12-20T08:14:36.697Z,3.91
2018-12-20T08:15:44.740Z,3.88
2018-12-20T08:16:52.794Z,3.91
2018-12-20T08:18:00.840Z,3.94
2018-12-20T08:19:08.913Z,3.94
2018-12-20T08:20:16.950Z,3.98
2018-12-20T08:21:25.020Z,4.08
2018-12-20T08:22:33.066Z,4.09
2018-12-20T08:23:41.124Z,3.91
2018-12-20T08:24:49.180Z,4.05
2018-12-20T08:25:57.232Z,4.05
2018-12-20T08:27:05.359Z,4.00
2018-12-20T08:28:13.325Z,3.94
2018-12-20T08:29:21.396Z,4.12
2018-12-20T08:30:29.463Z,4.09
2018-12-20T08:31:37.523Z,4.11
2018-12-20T08:32:45.587Z,4.05
2018-12-20T08:33:53.648Z,4.15
2018-12-20T08:35:01.682Z,4.11
2018-12-20T08:36:09.725Z,4.11
2018-12-20T08:37:17.821Z,4.20
2018-12-20T08:38:25.859Z,4.22
2018-12-20T08:39:33.911Z,4.22
2018-12-20T08:40:41.967Z,4.24
2018-12-20T08:41:50.000Z,4.24
2018-12-20T08:42:58.075Z,4.18
2018-12-20T08:44:06.131Z,4.15
2018-12-20T08:45:14.196Z,4.12
2018-12-20T08:46:22.295Z,4.09
2018-12-20T08:47:30.286Z,4.09
2018-12-20T08:48:38.367Z,4.08
2018-12-20T08:49:46.424Z,4.12
2018-12-20T08:50:54.478Z,4.20
2018-12-20T08:52:02.537Z,4.06
2018-12-20T08:53:10.581Z,4.23
2018-12-20T08:54:18.647Z,4.11
2018-12-20T08:55:26.707Z,4.06
2018-12-20T08:56:34.732Z,4.09
2018-12-20T08:57:42.805Z,4.23
2018-12-20T08:58:50.859Z,4.22
2018-12-20T08:59:58.906Z,4.16
2018-12-20T09:01:06.992Z,4.20
2018-12-20T09:02:15.040Z,4.20
2018-12-20T09:03:23.072Z,4.20
2018-12-20T09:04:31.142Z,4.20
2018-12-20T09:05:39.187Z,4.23
2018-12-20T09:06:47.261Z,4.32
2018-12-20T09:07:55.299Z,4.34
2018-12-20T09:09:03.368Z,4.41
2018-12-20T09:10:11.430Z,4.48
2018-12-20T09:11:19.485Z,4.45
2018-12-20T09:12:27.545Z,4.50
2018-12-20T09:13:35.623Z,4.58
2018-12-20T09:14:43.675Z,4.67
2018-12-20T09:15:51.714Z,4.67
2018-12-20T09:17:02.948Z,4.70
2018-12-20T09:18:07.815Z,4.84
2018-12-20T09:19:15.910Z,4.80
2018-12-20T09:20:23.917Z,4.80
2018-12-20T09:21:31.986Z,4.89
2018-12-20T09:22:40.035Z,4.88
2018-12-20T09:23:48.099Z,4.88
2018-12-20T09:24:56.142Z,4.96
2018-12-20T09:26:04.229Z,4.89
2018-12-20T09:27:12.273Z,4.91
2018-12-20T09:28:20.331Z,4.89
2018-12-20T09:29:28.394Z,4.99
2018-12-20T09:30:36.442Z,4.91
2018-12-20T09:31:44.500Z,4.92
2018-12-20T09:32:52.548Z,4.91
2018-12-20T09:34:00.606Z,4.94
2018-12-20T09:35:08.660Z,5.00
2018-12-20T09:36:16.731Z,5.04
2018-12-20T09:37:24.760Z,4.97
2018-12-20T09:38:32.833Z,5.06
2018-12-20T09:39:40.888Z,5.17
2018-12-20T09:40:48.938Z,5.17
2018-12-20T09:41:57.010Z,5.18
2018-12-20T09:43:05.093Z,5.30
2018-12-20T09:44:13.118Z,5.25
2018-12-20T09:45:21.178Z,5.30
2018-12-20T09:46:29.227Z,5.40
2018-12-20T09:47:37.290Z,5.38
2018-12-20T09:48:46.386Z,5.38
2018-12-20T09:49:53.394Z,5.36
2018-12-20T09:51:01.441Z,5.35
2018-12-20T09:52:09.556Z,5.56
2018-12-20T09:53:17.601Z,5.51
2018-12-20T09:54:25.620Z,5.54
2018-12-20T09:55:33.694Z,5.61
2018-12-20T09:56:41.750Z,5.61
2018-12-20T09:57:49.800Z,5.61
2018-12-20T09:58:57.867Z,5.63
2018-12-20T10:00:05.919Z,5.68
2018-12-20T10:01:14.002Z,5.72
2018-12-20T10:02:22.030Z,5.67
2018-12-20T10:03:30.101Z,5.71
2018-12-20T10:04:38.137Z,5.63
2018-12-20T10:05:46.205Z,5.58
2018-12-20T10:06:54.261Z,5.71
2018-12-20T10:08:02.311Z,5.72
2018-12-20T10:09:10.374Z,5.68
2018-12-20T10:10:18.445Z,5.67
2018-12-20T10:11:26.494Z,5.68
2018-12-20T10:12:34.550Z,5.72
2018-12-20T10:13:42.614Z,5.76
2018-12-20T10:14:50.670Z,5.94
2018-12-20T10:15:58.718Z,5.89
2018-12-20T10:17:06.791Z,6.11
2018-12-20T10:18:14.847Z,5.99
2018-12-20T10:19:22.898Z,6.09
2018-12-20T10:20:30.950Z,6.15
2018-12-20T10:21:39.030Z,6.27
2018-12-20T10:22:47.064Z,6.36
2018-12-20T10:23:55.125Z,6.36
2018-12-20T10:25:03.192Z,6.38
2018-12-20T10:26:11.264Z,6.37
2018-12-20T10:27:19.304Z,6.48
2018-12-20T10:28:27.374Z,6.49
2018-12-20T10:29:35.409Z,6.37
2018-12-20T10:30:43.473Z,6.51
2018-12-20T10:31:51.550Z,6.49
2018-12-20T10:32:59.609Z,6.46
2018-12-20T10:34:07.673Z,6.52
2018-12-20T10:35:15.700Z,6.58
2018-12-20T10:36:23.778Z,6.55
2018-12-20T10:37:31.826Z,6.52
2018-12-20T10:38:41.682Z,6.58
2018-12-20T10:39:47.944Z,6.55
2018-12-20T10:40:56.011Z,6.55
2018-12-20T10:42:04.055Z,6.54
2018-12-20T10:43:12.114Z,6.58
2018-12-20T10:44:20.163Z,6.52
2018-12-20T10:45:28.229Z,6.51
2018-12-20T10:46:36.314Z,6.54
2018-12-20T10:47:44.371Z,6.46
2018-12-20T10:48:52.414Z,6.49
2018-12-20T10:50:00.510Z,6.49
2018-12-20T10:51:08.528Z,6.38
2018-12-20T10:52:16.574Z,6.36
2018-12-20T10:53:24.639Z,6.48
2018-12-20T10:54:32.706Z,6.54
2018-12-20T10:55:40.761Z,6.66
2018-12-20T10:56:48.825Z,6.76
2018-12-20T10:57:56.869Z,6.71
2018-12-20T10:59:04.924Z,6.76
2018-12-20T11:00:12.994Z,6.79
2018-12-20T11:01:21.055Z,6.67
2018-12-20T11:02:29.105Z,6.56
2018-12-20T11:03:37.162Z,6.69
2018-12-20T11:04:45.230Z,6.66
2018-12-20T11:05:53.280Z,6.56
2018-12-20T11:07:01.359Z,6.55
2018-12-20T11:08:09.430Z,6.58
2018-12-20T11:09:17.464Z,6.62
2018-12-20T11:10:25.520Z,6.67
2018-12-20T11:11:33.571Z,6.74
2018-12-20T11:12:41.637Z,6.80
2018-12-20T11:13:49.692Z,6.80
2018-12-20T11:14:57.754Z,6.89
2018-12-20T11:16:05.824Z,7.02
2018-12-20T11:17:13.860Z,7.02
2018-12-20T11:18:21.921Z,7.10
2018-12-20T11:19:29.980Z,7.10
2018-12-20T11:20:38.031Z,7.07
2018-12-20T11:21:46.081Z,6.99
2018-12-20T11:22:54.179Z,6.92
2018-12-20T11:24:02.229Z,6.89
2018-12-20T11:25:10.264Z,6.98
2018-12-20T11:26:18.357Z,6.88
2018-12-20T11:27:26.395Z,6.87
2018-12-20T11:28:34.455Z,6.84
2018-12-20T11:29:42.518Z,6.88
2018-12-20T11:30:50.565Z,6.91
2018-12-20T11:31:58.656Z,6.91
2018-12-20T11:33:06.692Z,6.79
2018-12-20T11:34:14.753Z,6.77
2018-12-20T11:35:22.801Z,6.81
2018-12-20T11:36:30.844Z,6.62
2018-12-20T11:37:38.897Z,6.62
2018-12-20T11:38:46.982Z,6.55
2018-12-20T11:39:59.331Z,6.61
2018-12-20T11:41:03.085Z,6.67
2018-12-20T11:42:11.151Z,6.61
2018-12-20T11:43:19.222Z,6.55
2018-12-20T11:44:27.272Z,6.56
2018-12-20T11:45:35.295Z,6.66
2018-12-20T11:46:43.375Z,6.71
2018-12-20T11:47:51.417Z,6.66
2018-12-20T11:48:59.483Z,6.66
2018-12-20T11:50:07.553Z,6.66
2018-12-20T11:51:15.594Z,6.70
2018-12-20T11:52:23.660Z,6.69
2018-12-20T11:53:31.724Z,6.73
2018-12-20T11:54:39.783Z,6.77
2018-12-20T11:55:47.835Z,6.79
2018-12-20T11:56:55.890Z,6.85
2018-12-20T11:58:03.956Z,6.85
2018-12-20T11:59:12.014Z,6.94
2018-12-20T12:00:20.077Z,6.88
2018-12-20T12:01:28.120Z,6.89
2018-12-20T12:02:36.181Z,6.94
2018-12-20T12:03:44.251Z,6.98
2018-12-20T12:04:52.316Z,6.94
2018-12-20T12:06:00.383Z,7.02
2018-12-20T12:07:08.420Z,7.02
2018-12-20T12:08:16.516Z,6.97
2018-12-20T12:09:24.544Z,6.91
2018-12-20T12:10:32.602Z,7.05
2018-12-20T12:11:40.680Z,7.05
2018-12-20T12:12:48.715Z,7.02
2018-12-20T12:13:56.769Z,7.15
2018-12-20T12:15:04.825Z,7.21
2018-12-20T12:16:12.868Z,7.13
2018-12-20T12:17:20.937Z,7.13
2018-12-20T12:18:28.991Z,7.12
2018-12-20T12:19:37.059Z,7.15
2018-12-20T12:20:45.119Z,7.21
2018-12-20T12:21:53.179Z,7.15
2018-12-20T12:23:01.232Z,7.16
2018-12-20T12:24:09.301Z,7.21
2018-12-20T12:25:17.349Z,7.24
2018-12-20T12:26:25.396Z,7.23
2018-12-20T12:27:33.467Z,7.28
2018-12-20T12:28:41.544Z,7.27
2018-12-20T12:29:49.579Z,7.23
2018-12-20T12:30:57.636Z,7.10
2018-12-20T12:32:05.702Z,7.12
2018-12-20T12:33:13.764Z,7.27
2018-12-20T12:34:21.819Z,7.24
2018-12-20T12:35:29.986Z,7.23
2018-12-20T12:36:37.942Z,7.23
2018-12-20T12:37:46.004Z,7.25
2018-12-20T12:38:54.064Z,7.21
2018-12-20T12:40:02.144Z,7.24
2018-12-20T12:41:10.155Z,7.15
2018-12-20T12:42:18.216Z,7.16
2018-12-20T12:43:26.277Z,7.15
2018-12-20T12:44:34.350Z,6.98
2018-12-20T12:45:42.411Z,7.03
2018-12-20T12:46:50.468Z,6.95
2018-12-20T12:48:03.080Z,6.98
2018-12-20T12:49:06.586Z,6.91
2018-12-20T12:50:14.647Z,6.94
2018-12-20T12:51:22.761Z,6.87
2018-12-20T12:52:30.773Z,6.85
2018-12-20T12:53:38.834Z,6.77
2018-12-20T12:54:46.874Z,6.81
2018-12-20T12:55:54.935Z,6.79
2018-12-20T12:57:02.993Z,6.80
2018-12-20T12:58:11.067Z,6.80
2018-12-20T12:59:19.138Z,6.80
2018-12-20T13:00:27.183Z,6.80
2018-12-20T13:01:35.213Z,6.79
2018-12-20T13:02:43.290Z,6.84
2018-12-20T13:03:51.345Z,6.84
2018-12-20T13:04:59.419Z,6.80
2018-12-20T13:06:07.469Z,6.85
2018-12-20T13:07:15.503Z,6.79
2018-12-20T13:08:23.571Z,6.81
2018-12-20T13:09:31.651Z,6.89
2018-12-20T13:10:39.709Z,6.84
2018-12-20T13:11:47.766Z,6.79
2018-12-20T13:12:55.789Z,6.76
2018-12-20T13:14:03.871Z,6.76
2018-12-20T13:15:11.929Z,6.73
2018-12-20T13:16:20.005Z,6.81
2018-12-20T13:17:28.045Z,6.80
2018-12-20T13:18:36.119Z,6.76
2018-12-20T13:19:44.172Z,6.73
2018-12-20T13:20:52.223Z,6.73
2018-12-20T13:22:00.281Z,6.79
2018-12-20T13:23:08.335Z,6.80
2018-12-20T13:24:16.405Z,6.76
2018-12-20T13:25:24.453Z,6.89
2018-12-20T13:26:32.517Z,6.76
2018-12-20T13:27:40.593Z,6.89
2018-12-20T13:28:48.647Z,6.73
2018-12-20T13:29:56.668Z,6.77
2018-12-20T13:31:04.742Z,6.76
2018-12-20T13:32:12.801Z,6.67
2018-12-20T13:33:20.865Z,6.58
2018-12-20T13:34:28.915Z,6.51
2018-12-20T13:35:36.992Z,6.59
2018-12-20T13:36:45.040Z,6.51
2018-12-20T13:37:53.703Z,6.55
2018-12-20T13:39:01.142Z,6.46
2018-12-20T13:40:09.199Z,6.44
2018-12-20T13:41:17.298Z,6.41
2018-12-20T13:42:25.393Z,6.31
2018-12-20T13:43:33.399Z,6.36
2018-12-20T13:44:41.433Z,6.31
2018-12-20T13:45:49.488Z,6.25
2018-12-20T13:46:57.563Z,6.31
2018-12-20T13:48:05.625Z,6.27
2018-12-20T13:49:13.677Z,6.14
2018-12-20T13:50:21.716Z,6.11
2018-12-20T13:51:29.811Z,6.15
2018-12-20T13:52:37.828Z,6.09
2018-12-20T13:53:45.870Z,6.09
2018-12-20T13:54:53.968Z,6.03
2018-12-20T13:56:02.007Z,6.00
2018-12-20T13:57:10.056Z,6.01
2018-12-20T13:58:18.120Z,5.91
2018-12-20T13:59:26.195Z,5.89
2018-12-20T14:00:34.247Z,5.72
2018-12-20T14:01:42.309Z,5.79
2018-12-20T14:02:50.356Z,5.74
2018-12-20T14:03:58.403Z,5.67
2018-12-20T14:05:06.470Z,5.71
2018-12-20T14:06:14.537Z,5.64
2018-12-20T14:07:22.582Z,5.61
2018-12-20T14:08:30.632Z,5.53
2018-12-20T14:09:38.707Z,5.63
2018-12-20T14:10:46.784Z,5.45
2018-12-20T14:11:54.809Z,5.53
2018-12-20T14:13:02.858Z,5.46
2018-12-20T14:14:10.904Z,5.56
2018-12-20T14:15:18.981Z,5.51
2018-12-20T14:16:27.080Z,5.54
2018-12-20T14:17:35.096Z,5.48
2018-12-20T14:18:43.158Z,5.49
2018-12-20T14:19:51.208Z,5.49
2018-12-20T14:20:59.284Z,5.53
2018-12-20T14:22:07.320Z,5.54
2018-12-20T14:23:15.394Z,5.40
2018-12-20T14:24:23.471Z,5.36
2018-12-20T14:25:31.502Z,5.36
2018-12-20T14:26:39.580Z,5.28
2018-12-20T14:27:47.601Z,5.35
2018-12-20T14:28:55.650Z,5.30
2018-12-20T14:30:03.732Z,5.15
2018-12-20T14:31:11.780Z,5.17
2018-12-20T14:32:19.840Z,5.07
2018-12-20T14:33:27.909Z,5.03
2018-12-20T14:34:35.958Z,4.99
2018-12-20T14:35:44.031Z,4.94
2018-12-20T14:36:52.078Z,4.86
2018-12-20T14:38:00.079Z,4.89
2018-12-20T14:39:08.160Z,4.75
2018-12-20T14:40:16.222Z,4.78
2018-12-20T14:41:24.275Z,4.77
2018-12-20T14:42:32.339Z,4.77
2018-12-20T14:43:40.478Z,4.70
2018-12-20T14:44:48.443Z,4.70
2018-12-20T14:45:56.517Z,4.82
2018-12-20T14:47:04.563Z,4.80
2018-12-20T14:48:12.619Z,4.72
2018-12-20T14:49:20.662Z,4.73
2018-12-20T14:50:28.714Z,4.73
2018-12-20T14:51:36.803Z,4.70
2018-12-20T14:52:44.827Z,4.77
2018-12-20T14:53:52.916Z,4.73
2018-12-20T14:55:00.953Z,4.73
2018-12-20T14:56:09.023Z,4.73
2018-12-20T14:57:17.073Z,4.66
2018-12-20T14:58:25.121Z,4.59
2018-12-20T14:59:33.181Z,4.65
2018-12-20T15:00:41.246Z,4.60
2018-12-20T15:01:49.308Z,4.63
2018-12-20T15:02:57.376Z,4.59
2018-12-20T15:04:05.409Z,4.67
2018-12-20T15:05:13.471Z,4.58